createdAt,value
2022-11-26T00:00:47.848Z,9.60
2022-11-26T00:03:14.941Z,9.77
2022-11-26T00:05:43.495Z,9.83
2022-11-26T00:08:20.698Z,9.81
2022-11-26T00:10:49.786Z,9.93
2022-11-26T00:13:28.076Z,9.95
2022-11-26T00:15:55.275Z,9.51
2022-11-26T00:18:26.846Z,9.86
2022-11-26T00:21:00.112Z,10.08
2022-11-26T00:23:27.946Z,9.48
2022-11-26T00:25:59.953Z,9.36
2022-11-26T00:28:27.716Z,9.58
2022-11-26T00:30:59.532Z,9.77
2022-11-26T00:33:27.509Z,10.20
2022-11-26T00:35:56.780Z,10.08
2022-11-26T00:38:23.489Z,10.11
2022-11-26T00:40:49.972Z,10.34
2022-11-26T00:43:17.682Z,10.29
2022-11-26T00:45:45.300Z,10.17
2022-11-26T00:48:11.756Z,10.24
2022-11-26T00:50:41.030Z,9.95
2022-11-26T00:53:08.306Z,10.25
2022-11-26T00:55:38.022Z,10.33
2022-11-26T00:58:06.079Z,10.29
2022-11-26T01:00:34.599Z,10.44
2022-11-26T01:03:01.955Z,10.20
2022-11-26T01:05:33.684Z,10.67
2022-11-26T01:08:02.939Z,10.79
2022-11-26T01:10:29.996Z,10.62
2022-11-26T01:12:57.287Z,10.62
2022-11-26T01:15:25.560Z,10.41
2022-11-26T01:17:53.269Z,10.62
2022-11-26T01:20:30.693Z,10.80
2022-11-26T01:22:59.141Z,10.69
2022-11-26T01:25:26.930Z,10.69
2022-11-26T01:27:54.108Z,10.64
2022-11-26T01:30:24.964Z,10.54
2022-11-26T01:32:51.938Z,10.59
2022-11-26T01:35:19.980Z,10.61
2022-11-26T01:37:47.010Z,10.55
2022-11-26T01:40:25.582Z,10.68
2022-11-26T01:43:07.005Z,10.64
2022-11-26T01:45:33.523Z,10.68
2022-11-26T01:48:00.127Z,10.49
2022-11-26T01:50:49.920Z,10.83
2022-11-26T01:53:24.695Z,10.62
2022-11-26T01:55:55.195Z,9.88
2022-11-26T01:58:30.088Z,9.96
2022-11-26T02:00:56.672Z,10.38
2022-11-26T02:03:23.875Z,10.11
2022-11-26T02:06:00.747Z,10.08
2022-11-26T02:08:28.513Z,10.22
2022-11-26T02:10:54.974Z,10.32
2022-11-26T02:13:21.936Z,10.97
2022-11-26T02:16:18.245Z,10.85
2022-11-26T02:18:53.130Z,10.90
2022-11-26T02:21:27.152Z,10.42
2022-11-26T02:24:21.085Z,10.51
2022-11-26T02:26:56.673Z,10.37
2022-11-26T02:29:59.159Z,10.81
2022-11-26T02:32:32.539Z,10.34
2022-11-26T02:35:02.744Z,10.39
2022-11-26T02:37:34.282Z,10.39
2022-11-26T02:40:00.740Z,10.53
2022-11-26T02:42:32.928Z,10.40
2022-11-26T02:45:03.435Z,10.39
2022-11-26T02:47:30.076Z,10.26
2022-11-26T02:50:00.157Z,10.45
2022-11-26T02:52:27.944Z,10.23
2022-11-26T02:54:55.128Z,10.39
2022-11-26T02:57:24.998Z,10.27
2022-11-26T02:59:51.572Z,10.35
2022-11-26T03:02:24.925Z,10.12
2022-11-26T03:04:54.704Z,10.13
2022-11-26T03:07:22.750Z,10.38
2022-11-26T03:09:55.764Z,10.20
2022-11-26T03:12:23.089Z,10.21
2022-11-26T03:14:49.867Z,9.96
2022-11-26T03:17:16.947Z,9.89
2022-11-26T03:19:44.014Z,9.73
2022-11-26T03:22:11.552Z,9.87
2022-11-26T03:24:38.393Z,9.69
2022-11-26T03:27:06.392Z,10.05
2022-11-26T03:29:33.438Z,9.76
2022-11-26T03:32:00.218Z,9.49
2022-11-26T03:34:27.356Z,9.77
2022-11-26T03:36:53.847Z,9.34
2022-11-26T03:39:20.643Z,9.51
2022-11-26T03:41:47.689Z,9.09
2022-11-26T03:44:14.335Z,9.11
2022-11-26T03:46:40.904Z,9.32
2022-11-26T03:49:08.220Z,9.06
2022-11-26T03:51:34.708Z,9.01
2022-11-26T03:54:01.172Z,9.16
2022-11-26T03:56:28.205Z,9.32
2022-11-26T03:58:55.541Z,9.23
2022-11-26T04:01:22.432Z,8.94
2022-11-26T04:03:49.419Z,9.37
2022-11-26T04:06:16.283Z,9.29
2022-11-26T04:08:43.411Z,8.90
2022-11-26T04:11:10.237Z,8.86
2022-11-26T04:13:36.729Z,8.92
2022-11-26T04:16:03.208Z,8.63
2022-11-26T04:18:29.708Z,8.55
2022-11-26T04:20:56.195Z,8.63
2022-11-26T04:23:22.784Z,8.66
2022-11-26T04:25:49.240Z,8.71
2022-11-26T04:28:15.787Z,8.80
2022-11-26T04:30:43.054Z,8.45
2022-11-26T04:33:09.829Z,8.52
2022-11-26T04:35:37.624Z,8.71
2022-11-26T04:38:04.142Z,8.64
2022-11-26T04:40:30.684Z,8.63
2022-11-26T04:42:57.153Z,8.52
2022-11-26T04:45:23.604Z,8.55
2022-11-26T04:47:50.297Z,9.06
2022-11-26T04:50:16.776Z,9.28
2022-11-26T04:52:43.650Z,8.62
2022-11-26T04:55:10.391Z,8.62
2022-11-26T04:57:36.825Z,8.62
2022-11-26T05:00:05.097Z,8.59
2022-11-26T05:02:31.572Z,8.80
2022-11-26T05:04:58.050Z,8.50
2022-11-26T05:07:24.556Z,8.63
2022-11-26T05:09:51.080Z,8.61
2022-11-26T05:12:17.532Z,8.75
2022-11-26T05:14:44.042Z,8.71
2022-11-26T05:17:10.496Z,8.79
2022-11-26T05:19:36.962Z,8.31
2022-11-26T05:22:03.398Z,8.39
2022-11-26T05:24:29.844Z,8.61
2022-11-26T05:26:57.287Z,8.52
2022-11-26T05:29:24.569Z,8.62
2022-11-26T05:31:51.079Z,8.52
2022-11-26T05:34:18.629Z,8.43
2022-11-26T05:36:45.080Z,8.74
2022-11-26T05:39:11.588Z,8.91
2022-11-26T05:41:38.044Z,8.78
2022-11-26T05:44:04.696Z,8.82
2022-11-26T05:46:31.137Z,8.56
2022-11-26T05:48:57.600Z,8.01
2022-11-26T05:51:24.098Z,8.02
2022-11-26T05:53:50.579Z,8.25
2022-11-26T05:56:17.030Z,8.59
2022-11-26T05:58:43.833Z,7.97
2022-11-26T06:01:10.815Z,8.77
2022-11-26T06:03:37.683Z,8.67
2022-11-26T06:06:04.391Z,8.39
2022-11-26T06:08:30.932Z,8.36
2022-11-26T06:10:57.535Z,8.16
2022-11-26T06:13:24.131Z,8.36
2022-11-26T06:15:50.611Z,8.46
2022-11-26T06:18:17.507Z,8.24
2022-11-26T06:20:44.305Z,8.00
2022-11-26T06:23:10.939Z,8.43
2022-11-26T06:25:40.191Z,8.44
2022-11-26T06:28:06.673Z,8.19
2022-11-26T06:30:33.163Z,8.18
2022-11-26T06:32:59.681Z,8.23
2022-11-26T06:35:26.181Z,8.49
2022-11-26T06:37:52.604Z,8.23
2022-11-26T06:40:20.392Z,7.86
2022-11-26T06:42:51.057Z,7.94
2022-11-26T06:45:17.709Z,8.68
2022-11-26T06:47:46.664Z,8.55
2022-11-26T06:50:14.327Z,8.58
2022-11-26T06:52:40.858Z,8.50
2022-11-26T06:55:07.786Z,8.37
2022-11-26T06:57:34.320Z,8.63
2022-11-26T07:00:00.811Z,8.75
2022-11-26T07:02:27.439Z,8.81
2022-11-26T07:04:53.969Z,8.45
2022-11-26T07:07:20.421Z,8.06
2022-11-26T07:09:47.007Z,8.01
2022-11-26T07:12:13.463Z,7.77
2022-11-26T07:14:40.120Z,8.20
2022-11-26T07:17:06.787Z,8.19
2022-11-26T07:19:33.243Z,8.24
2022-11-26T07:21:59.669Z,8.33
2022-11-26T07:24:26.140Z,8.23
2022-11-26T07:26:52.596Z,8.34
2022-11-26T07:29:19.074Z,8.38
2022-11-26T07:31:45.641Z,8.67
2022-11-26T07:34:12.107Z,8.44
2022-11-26T07:36:43.035Z,8.58
2022-11-26T07:39:10.986Z,8.43
2022-11-26T07:41:37.745Z,8.34
2022-11-26T07:44:04.322Z,8.50
2022-11-26T07:46:30.838Z,8.54
2022-11-26T07:48:57.834Z,8.42
2022-11-26T07:51:25.362Z,8.43
2022-11-26T07:53:52.580Z,8.08
2022-11-26T07:56:19.192Z,8.22
2022-11-26T07:58:46.179Z,8.48
2022-11-26T08:01:15.122Z,8.63
2022-11-26T08:03:43.626Z,8.67
2022-11-26T08:06:12.400Z,8.54
2022-11-26T08:08:39.014Z,8.29
2022-11-26T08:11:12.565Z,7.97
2022-11-26T08:13:39.048Z,8.52
2022-11-26T08:16:05.770Z,8.38
2022-11-26T08:18:32.290Z,8.20
2022-11-26T08:20:59.279Z,8.11
2022-11-26T08:23:26.032Z,8.43
2022-11-26T08:26:20.432Z,8.56
2022-11-26T08:28:39.378Z,8.65
2022-11-26T08:31:08.786Z,8.84
2022-11-26T08:33:36.068Z,8.72
2022-11-26T08:36:08.050Z,8.46
2022-11-26T08:38:35.610Z,8.40
2022-11-26T08:41:07.638Z,8.12
2022-11-26T08:46:27.759Z,8.24
2022-11-26T08:48:57.959Z,8.23
2022-11-26T08:51:25.482Z,8.45
2022-11-26T08:53:52.595Z,8.00
2022-11-26T08:56:19.334Z,7.94
2022-11-26T08:58:46.559Z,8.32
2022-11-26T09:01:20.062Z,8.61
2022-11-26T09:03:51.078Z,8.32
2022-11-26T09:06:18.901Z,8.28
2022-11-26T09:09:03.977Z,8.34
2022-11-26T09:11:30.620Z,8.19
2022-11-26T09:14:00.154Z,7.89
2022-11-26T09:16:27.082Z,8.52
2022-11-26T09:18:54.130Z,8.28
2022-11-26T09:21:21.589Z,8.22
2022-11-26T09:23:48.051Z,8.07
2022-11-26T09:26:15.144Z,8.25
2022-11-26T09:28:41.610Z,8.27
2022-11-26T09:31:08.463Z,8.38
2022-11-26T09:33:35.388Z,8.72
2022-11-26T09:36:09.332Z,8.23
2022-11-26T09:38:36.480Z,8.80
2022-11-26T09:41:34.380Z,8.42
2022-11-26T09:44:05.543Z,8.75
2022-11-26T09:46:50.933Z,8.22
2022-11-26T09:49:18.129Z,8.59
2022-11-26T09:51:47.657Z,8.42
2022-11-26T09:54:19.393Z,8.68
2022-11-26T09:56:47.545Z,8.83
2022-11-26T09:59:18.394Z,9.63
2022-11-26T10:01:45.603Z,9.73
2022-11-26T10:04:23.609Z,9.58
2022-11-26T10:07:21.149Z,9.73
2022-11-26T10:10:08.834Z,9.56
2022-11-26T10:13:03.109Z,9.74
2022-11-26T10:15:30.408Z,9.10
2022-11-26T10:18:00.325Z,9.27
2022-11-26T10:21:02.629Z,9.40
2022-11-26T10:23:37.751Z,9.62
2022-11-26T10:26:14.627Z,9.35
2022-11-26T10:28:50.078Z,9.08
2022-11-26T10:31:26.242Z,9.12
2022-11-26T10:34:02.329Z,9.17
2022-11-26T10:36:38.024Z,9.59
2022-11-26T10:39:05.762Z,8.97
2022-11-26T10:41:37.291Z,9.24
2022-11-26T10:44:37.254Z,9.11
2022-11-26T10:47:30.236Z,9.15
2022-11-26T10:50:46.745Z,9.30
2022-11-26T10:53:20.624Z,9.30
2022-11-26T10:55:47.236Z,9.48
2022-11-26T10:58:17.624Z,9.60
2022-11-26T11:00:50.136Z,9.60
2022-11-26T11:03:38.248Z,9.89
2022-11-26T11:06:39.787Z,9.49
2022-11-26T11:09:29.231Z,9.37
2022-11-26T11:12:11.148Z,9.45
2022-11-26T11:14:43.026Z,9.38
2022-11-26T11:17:33.743Z,9.49
2022-11-26T11:20:18.770Z,9.42
2022-11-26T11:22:46.311Z,9.42
2022-11-26T11:25:24.784Z,9.33
2022-11-26T11:27:51.336Z,9.56
2022-11-26T11:30:30.708Z,9.69
2022-11-26T11:32:58.858Z,9.44
2022-11-26T11:35:30.316Z,9.37
2022-11-26T11:37:57.623Z,9.18
2022-11-26T11:40:27.525Z,9.47
2022-11-26T11:43:02.389Z,9.56
2022-11-26T11:45:34.736Z,9.64
2022-11-26T11:48:27.049Z,9.45
2022-11-26T11:51:21.262Z,9.70
2022-11-26T11:53:54.024Z,9.74
2022-11-26T11:56:41.670Z,9.57
2022-11-26T11:59:24.391Z,9.65
2022-11-26T12:02:16.056Z,9.38
2022-11-26T12:04:48.696Z,9.51
2022-11-26T12:07:33.976Z,9.80
2022-11-26T12:10:35.160Z,9.68
2022-11-26T12:13:02.229Z,9.22
2022-11-26T12:15:30.713Z,10.03
2022-11-26T12:18:18.186Z,9.83
2022-11-26T12:20:48.330Z,10.13
2022-11-26T12:23:46.119Z,9.92
2022-11-26T12:26:20.739Z,9.75
2022-11-26T12:29:12.711Z,9.91
2022-11-26T12:31:43.395Z,10.18
2022-11-26T12:34:34.488Z,10.29
2022-11-26T12:37:07.822Z,10.66
2022-11-26T12:39:56.346Z,9.59
2022-11-26T12:42:45.990Z,9.53
2022-11-26T12:45:40.833Z,9.84
2022-11-26T12:48:46.471Z,9.66
2022-11-26T12:51:54.791Z,9.89
2022-11-26T12:54:56.957Z,9.22
2022-11-26T12:57:51.679Z,9.77
2022-11-26T13:00:25.595Z,10.07
2022-11-26T13:02:53.881Z,10.49
2022-11-26T13:05:34.478Z,10.20
2022-11-26T13:10:56.837Z,10.13
2022-11-26T13:13:51.590Z,10.18
2022-11-26T13:16:34.985Z,10.25
2022-11-26T13:19:07.059Z,10.58
2022-11-26T13:21:44.129Z,10.44
2022-11-26T13:24:19.614Z,10.02
2022-11-26T13:26:59.074Z,10.16
2022-11-26T13:29:59.578Z,10.03
2022-11-26T13:32:35.048Z,10.04
2022-11-26T13:35:20.024Z,10.34
2022-11-26T13:37:52.443Z,9.85
2022-11-26T13:40:58.567Z,9.53
2022-11-26T13:44:03.205Z,9.91
2022-11-26T13:46:40.542Z,10.08
2022-11-26T13:49:13.936Z,9.66
2022-11-26T13:51:53.795Z,10.04
2022-11-26T13:54:28.398Z,9.52
2022-11-26T13:57:01.554Z,9.70
2022-11-26T13:59:28.988Z,9.53
2022-11-26T14:01:56.084Z,9.95
2022-11-26T14:04:22.621Z,10.15
2022-11-26T14:07:04.276Z,9.77
2022-11-26T14:09:42.925Z,9.37
2022-11-26T14:12:11.108Z,10.18
2022-11-26T14:14:39.231Z,10.21
2022-11-26T14:17:08.815Z,9.89
2022-11-26T14:19:41.332Z,10.10
2022-11-26T14:22:25.932Z,9.73
2022-11-26T14:24:56.790Z,9.64
2022-11-26T14:27:32.487Z,9.95
2022-11-26T14:30:08.146Z,10.44
2022-11-26T14:32:39.116Z,10.51
2022-11-26T14:35:34.259Z,9.76
2022-11-26T14:38:02.849Z,9.44
2022-11-26T14:40:37.923Z,10.04
2022-11-26T14:43:19.727Z,10.21
2022-11-26T14:45:48.060Z,9.91
2022-11-26T14:48:23.830Z,9.85
2022-11-26T14:50:50.654Z,9.54
2022-11-26T14:53:17.368Z,9.99
2022-11-26T14:55:44.519Z,10.01
2022-11-26T14:58:17.118Z,9.74
2022-11-26T15:00:43.643Z,10.00
2022-11-26T15:03:28.422Z,10.19
2022-11-26T15:05:54.885Z,10.52
2022-11-26T15:08:25.174Z,10.58
2022-11-26T15:10:51.640Z,10.13
2022-11-26T15:13:43.796Z,10.05
2022-11-26T15:16:32.772Z,9.93
2022-11-26T15:19:00.377Z,9.80
2022-11-26T15:21:27.936Z,10.16
2022-11-26T15:23:57.211Z,10.49
2022-11-26T15:26:24.909Z,10.62
2022-11-26T15:28:51.476Z,10.45
2022-11-26T15:31:18.179Z,9.99
2022-11-26T15:33:45.182Z,9.80
2022-11-26T15:36:17.223Z,9.98
2022-11-26T15:39:03.625Z,10.18
2022-11-26T15:41:30.377Z,10.03
2022-11-26T15:44:01.244Z,9.77
2022-11-26T15:46:31.651Z,9.74
2022-11-26T15:49:00.156Z,9.84
2022-11-26T15:51:35.749Z,9.86
2022-11-26T15:54:04.863Z,9.82
2022-11-26T15:56:34.753Z,9.95
2022-11-26T15:59:04.241Z,9.78
2022-11-26T16:01:34.094Z,9.58
2022-11-26T16:04:04.848Z,9.98
2022-11-26T16:06:40.105Z,9.84
2022-11-26T16:09:12.417Z,10.06
2022-11-26T16:11:44.341Z,10.31
2022-11-26T16:14:33.837Z,9.67
2022-11-26T16:17:08.895Z,10.10
2022-11-26T16:19:36.551Z,9.45
2022-11-26T16:22:05.240Z,9.77
2022-11-26T16:24:42.833Z,9.57
2022-11-26T16:27:26.559Z,9.97
2022-11-26T16:29:53.117Z,9.93
2022-11-26T16:32:20.043Z,10.04
2022-11-26T16:34:46.529Z,9.91
2022-11-26T16:37:27.532Z,10.12
2022-11-26T16:40:04.968Z,9.55
2022-11-26T16:42:32.730Z,9.89
2022-11-26T16:45:03.929Z,9.69
2022-11-26T16:47:41.488Z,9.70
2022-11-26T16:50:28.574Z,10.37
2022-11-26T16:52:55.761Z,9.81
2022-11-26T16:55:24.301Z,9.99
2022-11-26T16:57:53.588Z,9.85
2022-11-26T17:00:22.831Z,9.70
2022-11-26T17:02:49.868Z,9.79
2022-11-26T17:05:16.989Z,9.45
2022-11-26T17:07:46.741Z,9.79
2022-11-26T17:10:16.843Z,9.73
2022-11-26T17:12:43.981Z,9.89
2022-11-26T17:15:11.078Z,9.61
2022-11-26T17:17:37.769Z,9.80
2022-11-26T17:20:07.024Z,9.79
2022-11-26T17:22:33.567Z,9.62
2022-11-26T17:25:00.036Z,10.36
2022-11-26T17:27:26.877Z,9.52
2022-11-26T17:29:53.364Z,8.93
2022-11-26T17:32:20.327Z,9.04
2022-11-26T17:34:47.204Z,9.42
2022-11-26T17:37:24.511Z,9.70
2022-11-26T17:39:51.495Z,9.36
2022-11-26T17:42:19.887Z,9.58
2022-11-26T17:44:47.231Z,9.39
2022-11-26T17:47:18.810Z,9.62
2022-11-26T17:49:46.260Z,10.16
2022-11-26T17:52:13.331Z,9.71
2022-11-26T17:54:39.923Z,9.43
2022-11-26T17:57:06.612Z,9.98
2022-11-26T17:59:33.327Z,9.57
2022-11-26T18:02:00.827Z,9.98
2022-11-26T18:04:27.824Z,9.93
2022-11-26T18:07:18.229Z,9.68
2022-11-26T18:09:46.195Z,9.43
2022-11-26T18:12:24.874Z,9.64
2022-11-26T18:14:53.711Z,10.08
2022-11-26T18:17:20.474Z,10.04
2022-11-26T18:19:47.422Z,9.73
2022-11-26T18:22:19.854Z,9.63
2022-11-26T18:24:56.336Z,9.76
2022-11-26T18:27:26.212Z,9.40
2022-11-26T18:29:52.669Z,10.13
2022-11-26T18:32:19.261Z,9.84
2022-11-26T18:34:45.866Z,10.01
2022-11-26T18:37:12.848Z,10.00
2022-11-26T18:39:39.542Z,9.80
2022-11-26T18:42:35.385Z,9.88
2022-11-26T18:44:52.688Z,9.58
2022-11-26T18:47:19.120Z,9.63
2022-11-26T18:49:47.686Z,9.80
2022-11-26T18:52:14.424Z,10.10
2022-11-26T18:54:40.920Z,9.98
2022-11-26T18:57:07.396Z,9.70
2022-11-26T18:59:35.071Z,9.73
2022-11-26T19:02:01.836Z,9.74
2022-11-26T19:04:28.518Z,9.74
2022-11-26T19:06:56.356Z,10.16
2022-11-26T19:09:24.747Z,10.38
2022-11-26T19:11:54.676Z,9.90
2022-11-26T19:14:21.926Z,10.05
2022-11-26T19:16:50.158Z,10.31
2022-11-26T19:19:16.768Z,9.98
2022-11-26T19:21:43.326Z,10.37
2022-11-26T19:24:11.286Z,9.96
2022-11-26T19:26:38.990Z,9.35
2022-11-26T19:29:06.210Z,9.82
2022-11-26T19:31:35.822Z,10.00
2022-11-26T19:34:05.994Z,10.04
2022-11-26T19:36:33.227Z,10.11
2022-11-26T19:39:01.108Z,10.06
2022-11-26T19:41:28.249Z,10.19
2022-11-26T19:43:55.308Z,9.66
2022-11-26T19:46:24.398Z,9.86
2022-11-26T19:48:51.931Z,10.05
2022-11-26T19:51:20.371Z,10.21
2022-11-26T19:53:48.397Z,9.89
2022-11-26T19:56:17.344Z,10.07
2022-11-26T19:58:43.992Z,10.47
2022-11-26T20:01:12.872Z,9.87
2022-11-26T20:03:39.475Z,10.15
2022-11-26T20:06:07.993Z,9.97
2022-11-26T20:08:35.882Z,9.67
2022-11-26T20:11:03.631Z,9.81
2022-11-26T20:13:30.646Z,10.26
2022-11-26T20:15:57.147Z,10.17
2022-11-26T20:18:23.948Z,10.28
2022-11-26T20:21:01.749Z,10.08
2022-11-26T20:23:28.674Z,10.37
2022-11-26T20:25:55.289Z,10.16
2022-11-26T20:28:22.234Z,10.53
2022-11-26T20:30:49.461Z,10.50
2022-11-26T20:33:17.430Z,10.49
2022-11-26T20:35:44.779Z,10.60
2022-11-26T20:38:11.942Z,10.55
2022-11-26T20:40:40.330Z,10.43
2022-11-26T20:43:06.798Z,10.68
2022-11-26T20:45:33.534Z,10.78
2022-11-26T20:47:59.981Z,10.60
2022-11-26T20:50:26.444Z,10.74
2022-11-26T20:52:52.886Z,10.56
2022-11-26T20:55:21.948Z,10.32
2022-11-26T20:57:50.892Z,10.63
2022-11-26T21:00:20.410Z,10.74
2022-11-26T21:02:49.043Z,10.34
2022-11-26T21:05:16.146Z,10.53
2022-11-26T21:07:42.882Z,10.85
2022-11-26T21:10:10.328Z,10.89
2022-11-26T21:12:37.311Z,10.89
2022-11-26T21:15:05.016Z,10.59
2022-11-26T21:17:31.496Z,10.61
2022-11-26T21:19:57.980Z,10.68
2022-11-26T21:22:24.664Z,10.63
2022-11-26T21:24:51.281Z,10.44
2022-11-26T21:27:17.857Z,10.49
2022-11-26T21:29:46.189Z,10.62
2022-11-26T21:32:12.698Z,10.63
2022-11-26T21:34:39.170Z,10.43
2022-11-26T21:37:05.625Z,10.49
2022-11-26T21:39:32.122Z,10.48
2022-11-26T21:41:58.652Z,10.39
2022-11-26T21:44:25.104Z,10.65
2022-11-26T21:46:51.576Z,10.66
2022-11-26T21:49:18.227Z,10.98
2022-11-26T21:51:44.698Z,10.74
2022-11-26T21:54:11.384Z,10.93
2022-11-26T21:56:37.947Z,10.63
2022-11-26T21:59:04.526Z,10.86
2022-11-26T22:01:36.007Z,10.73
2022-11-26T22:04:10.511Z,10.45
2022-11-26T22:06:37.585Z,10.93
2022-11-26T22:09:05.001Z,10.86
2022-11-26T22:11:35.739Z,10.55
2022-11-26T22:14:03.151Z,10.94
2022-11-26T22:16:30.589Z,10.63
2022-11-26T22:18:58.898Z,10.63
2022-11-26T22:21:33.334Z,10.73
2022-11-26T22:24:01.421Z,10.72
2022-11-26T22:26:29.340Z,10.63
2022-11-26T22:28:55.935Z,11.04
2022-11-26T22:31:33.399Z,10.77
2022-11-26T22:34:02.847Z,10.35
2022-11-26T22:36:29.600Z,10.15
2022-11-26T22:38:56.445Z,10.54
2022-11-26T22:41:23.237Z,10.22
2022-11-26T22:43:49.819Z,10.20
2022-11-26T22:46:21.990Z,10.31
2022-11-26T22:48:53.784Z,9.99
2022-11-26T22:51:20.640Z,9.99
2022-11-26T22:53:57.824Z,10.21
2022-11-26T22:56:24.814Z,10.42
2022-11-26T22:58:51.278Z,10.45
2022-11-26T23:01:25.441Z,10.23
2022-11-26T23:03:53.181Z,10.46
2022-11-26T23:06:21.648Z,10.28
2022-11-26T23:08:48.765Z,10.32
2022-11-26T23:11:23.007Z,10.50
2022-11-26T23:13:50.180Z,10.55
2022-11-26T23:16:17.963Z,10.41
2022-11-26T23:18:44.792Z,10.33
2022-11-26T23:21:21.167Z,10.74
2022-11-26T23:23:48.388Z,10.51
2022-11-26T23:26:20.547Z,10.55
2022-11-26T23:28:51.766Z,10.37
2022-11-26T23:31:24.712Z,10.60
2022-11-26T23:33:51.736Z,10.66
2022-11-26T23:36:19.180Z,10.66
2022-11-26T23:38:45.921Z,10.67
2022-11-26T23:41:12.512Z,10.66
2022-11-26T23:43:39.305Z,10.58
2022-11-26T23:46:08.384Z,10.62
2022-11-26T23:48:34.944Z,10.79
2022-11-26T23:51:06.237Z,10.44
2022-11-26T23:53:35.005Z,10.45
2022-11-26T23:56:03.426Z,10.50
2022-11-26T23:58:30.025Z,10.54
